Time;durP1;ratioP1;P1;durP2;ratioP2;P2;SDS_P1;SDS_P2;PMS_P1;PMS_P2;Temp;Humidity;BMP_temperature;BMP_pressure;BME280_temperature;BME280_humidity;BME280_pressure;Samples;Min_cycle;Max_cycle;Signal;HPM_P1;HPM_P2
2023/08/24 00:01:16;;;;;;;9.93;8.93;;;21.30;99.90;;;;;;5003724;28;20224;-75
2023/08/24 00:03:44;;;;;;;8.80;8.10;;;21.20;99.90;;;;;;5000530;28;20182;-74
2023/08/24 00:06:10;;;;;;;9.63;8.93;;;21.20;99.90;;;;;;5001161;28;20204;-75
2023/08/24 00:08:37;;;;;;;10.27;9.23;;;21.20;99.90;;;;;;5008825;28;20517;-74
2023/08/24 00:11:02;;;;;;;11.13;10.27;;;21.20;99.90;;;;;;5012487;28;20418;-74
2023/08/24 00:13:28;;;;;;;10.30;8.90;;;21.20;99.90;;;;;;5001225;28;20433;-74
2023/08/24 00:15:54;;;;;;;9.97;9.27;;;21.20;99.90;;;;;;5007619;28;20171;-74
2023/08/24 00:18:21;;;;;;;10.27;9.27;;;21.20;99.90;;;;;;4989557;28;20183;-74
2023/08/24 00:20:47;;;;;;;9.30;8.60;;;21.30;99.90;;;;;;5008259;28;20448;-74
2023/08/24 00:23:13;;;;;;;9.33;8.50;;;21.20;99.90;;;;;;5004699;28;20434;-74
2023/08/24 00:25:40;;;;;;;8.37;7.77;;;21.20;99.90;;;;;;5012253;28;20507;-76
2023/08/24 00:28:06;;;;;;;9.87;9.07;;;21.20;99.90;;;;;;5010543;28;20591;-75
2023/08/24 00:30:32;;;;;;;10.20;9.40;;;21.20;99.90;;;;;;5008797;28;20429;-74
2023/08/24 00:32:57;;;;;;;11.00;10.10;;;21.20;99.90;;;;;;5004153;28;20589;-75
2023/08/24 00:35:23;;;;;;;10.30;9.43;;;21.10;99.90;;;;;;5011119;28;20210;-74
2023/08/24 00:37:50;;;;;;;11.17;10.17;;;21.00;99.90;;;;;;5000831;28;20206;-75
2023/08/24 00:40:16;;;;;;;10.00;9.13;;;20.90;99.90;;;;;;5009430;28;20641;-75
2023/08/24 00:42:43;;;;;;;10.80;9.87;;;20.90;99.90;;;;;;5010312;28;21414;-74
2023/08/24 00:45:11;;;;;;;9.77;9.03;;;20.90;99.90;;;;;;5006160;28;20465;-74
2023/08/24 00:47:39;;;;;;;9.33;8.73;;;20.80;99.90;;;;;;5005607;28;20851;-75
2023/08/24 00:50:06;;;;;;;10.20;9.50;;;20.90;99.90;;;;;;5002720;28;20445;-75
2023/08/24 00:52:33;;;;;;;9.87;8.87;;;21.00;99.90;;;;;;5009576;28;20434;-75
2023/08/24 00:55:01;;;;;;;9.40;8.70;;;21.00;99.90;;;;;;5006608;28;20548;-74
2023/08/24 00:57:28;;;;;;;9.03;8.10;;;21.00;99.90;;;;;;5004908;28;20441;-75
2023/08/24 00:59:58;;;;;;;12.53;10.80;;;21.00;99.90;;;;;;5004134;28;20441;-75
2023/08/24 01:02:24;;;;;;;11.53;10.70;;;21.00;99.90;;;;;;5007333;28;20445;-75
2023/08/24 01:04:49;;;;;;;10.87;10.10;;;20.90;99.90;;;;;;5006134;28;20465;-73
2023/08/24 01:07:17;;;;;;;13.33;12.07;;;20.80;99.90;;;;;;5001745;28;20226;-75
2023/08/24 01:09:42;;;;;;;14.20;13.13;;;20.90;99.90;;;;;;5000476;28;20179;-76
2023/08/24 01:12:19;;;;;;;12.20;11.20;;;20.90;99.90;;;;;;5013956;28;21126;-75
2023/08/24 01:15:06;;;;;;;9.63;9.03;;;20.90;99.90;;;;;;4991234;28;20829;-75
2023/08/24 01:17:33;;;;;;;10.17;9.17;;;20.90;99.90;;;;;;5014657;28;20825;-74
2023/08/24 01:19:59;;;;;;;10.67;9.83;;;20.80;99.90;;;;;;5008405;28;20529;-74
2023/08/24 01:22:28;;;;;;;12.53;10.47;;;20.80;99.90;;;;;;5014170;28;20503;-74
2023/08/24 01:25:16;;;;;;;10.87;10.07;;;20.90;99.90;;;;;;5007268;28;20468;-74
2023/08/24 01:27:43;;;;;;;10.33;9.63;;;20.80;99.90;;;;;;5015559;28;20493;-74
2023/08/24 01:30:09;;;;;;;10.40;9.60;;;20.80;99.90;;;;;;5014099;28;20429;-74
2023/08/24 01:32:36;;;;;;;11.20;10.23;;;20.80;99.90;;;;;;5010347;28;20815;-74
2023/08/24 01:35:05;;;;;;;10.07;9.23;;;20.80;99.90;;;;;;5013310;28;20465;-74
2023/08/24 01:37:31;;;;;;;11.33;10.43;;;20.70;99.90;;;;;;5008029;28;20520;-73
2023/08/24 01:40:09;;;;;;;10.53;9.80;;;20.70;99.90;;;;;;5010936;28;20437;-74
2023/08/24 01:42:38;;;;;;;10.97;10.07;;;20.60;99.90;;;;;;5005870;28;20437;-74
2023/08/24 01:45:07;;;;;;;10.30;9.40;;;20.60;99.90;;;;;;5006872;28;20556;-75
2023/08/24 01:47:35;;;;;;;11.93;10.40;;;20.50;99.90;;;;;;5011689;28;20880;-75
2023/08/24 01:50:02;;;;;;;10.60;9.70;;;20.50;99.90;;;;;;5001155;28;20446;-74
2023/08/24 01:52:28;;;;;;;11.10;10.30;;;20.40;99.90;;;;;;5009716;28;20518;-74
2023/08/24 01:54:53;;;;;;;11.20;10.10;;;20.40;99.90;;;;;;5013324;28;20549;-75
2023/08/24 01:57:19;;;;;;;11.13;10.13;;;20.70;99.90;;;;;;5013616;28;20182;-75
2023/08/24 01:59:44;;;;;;;11.03;10.07;;;20.30;99.90;;;;;;5004018;28;20562;-74
2023/08/24 02:02:10;;;;;;;13.83;9.80;;;20.40;99.90;;;;;;5012392;28;20217;-75
2023/08/24 02:04:35;;;;;;;11.50;10.60;;;20.40;99.90;;;;;;5007597;28;20214;-75
2023/08/24 02:07:01;;;;;;;10.77;9.77;;;20.50;99.90;;;;;;5008315;28;20179;-74
2023/08/24 02:09:26;;;;;;;10.80;9.90;;;20.50;99.90;;;;;;5009558;28;20187;-75
2023/08/24 02:11:52;;;;;;;10.97;9.73;;;20.50;99.90;;;;;;5009263;28;20179;-74
2023/08/24 02:14:17;;;;;;;10.47;9.77;;;20.40;99.90;;;;;;5002947;28;20568;-74
2023/08/24 02:16:43;;;;;;;12.10;10.90;;;20.40;99.90;;;;;;5003534;28;20183;-74
2023/08/24 02:19:08;;;;;;;10.20;9.40;;;20.20;99.90;;;;;;4995419;28;20184;-74
2023/08/24 02:21:36;;;;;;;11.50;10.40;;;20.20;99.90;;;;;;4997457;28;20183;-74
2023/08/24 02:24:02;;;;;;;11.07;10.10;;;20.00;99.90;;;;;;5006823;28;20206;-74
2023/08/24 02:26:28;;;;;;;10.57;9.77;;;20.00;99.90;;;;;;5011663;28;20469;-74
2023/08/24 02:28:53;;;;;;;12.03;10.93;;;19.90;99.90;;;;;;4995585;28;20799;-75
2023/08/24 02:31:19;;;;;;;12.27;11.40;;;19.90;99.90;;;;;;5009491;28;20183;-74
2023/08/24 02:33:44;;;;;;;12.40;11.20;;;19.90;99.90;;;;;;5011284;28;20242;-74
2023/08/24 02:36:10;;;;;;;12.00;10.90;;;19.90;99.90;;;;;;5014251;28;20185;-75
2023/08/24 02:38:35;;;;;;;11.67;10.47;;;20.30;99.90;;;;;;5001919;28;20175;-74
2023/08/24 02:41:06;;;;;;;13.90;11.83;;;20.00;99.90;;;;;;5011412;28;20171;-74
2023/08/24 02:43:32;;;;;;;11.90;11.10;;;19.90;99.90;;;;;;5008496;28;20183;-75
2023/08/24 02:46:05;;;;;;;11.73;10.57;;;19.90;99.90;;;;;;5008535;28;21007;-74
2023/08/24 02:48:34;;;;;;;11.23;10.47;;;19.90;99.90;;;;;;5010232;28;20438;-74
2023/08/24 02:51:01;;;;;;;11.57;10.50;;;20.10;99.90;;;;;;5007182;28;20484;-74
2023/08/24 02:53:27;;;;;;;11.90;10.90;;;20.00;99.90;;;;;;5011920;28;20776;-74
2023/08/24 02:55:53;;;;;;;13.57;10.83;;;20.10;99.90;;;;;;5009417;28;21038;-74
2023/08/24 02:58:19;;;;;;;12.00;10.90;;;20.10;99.90;;;;;;5004866;28;20449;-74
2023/08/24 03:00:45;;;;;;;11.93;10.93;;;20.00;99.90;;;;;;5002673;28;20450;-74
2023/08/24 03:03:10;;;;;;;11.37;10.40;;;20.00;99.90;;;;;;5004795;28;20190;-74
2023/08/24 03:05:36;;;;;;;11.57;10.67;;;19.90;99.90;;;;;;5005163;28;20240;-74
2023/08/24 03:08:04;;;;;;;11.97;11.07;;;20.00;99.90;;;;;;5009428;28;20179;-75
2023/08/24 03:10:30;;;;;;;12.33;11.13;;;20.00;99.90;;;;;;5010654;28;20206;-74
2023/08/24 03:12:55;;;;;;;11.33;10.53;;;20.00;99.90;;;;;;5001015;28;20434;-75
2023/08/24 03:15:21;;;;;;;11.10;10.20;;;19.90;99.90;;;;;;5007252;28;20214;-74
2023/08/24 03:17:47;;;;;;;11.60;10.63;;;19.90;99.90;;;;;;5003796;28;20750;-74
2023/08/24 03:20:13;;;;;;;12.27;11.30;;;19.90;99.90;;;;;;5001133;28;20498;-74
2023/08/24 03:22:40;;;;;;;12.53;11.40;;;19.90;99.90;;;;;;4998857;28;20209;-73
2023/08/24 03:25:06;;;;;;;9.57;8.87;;;20.00;99.90;;;;;;5007576;28;20504;-74
2023/08/24 03:27:32;;;;;;;11.97;11.17;;;20.00;99.90;;;;;;5002940;28;20864;-74
2023/08/24 03:29:57;;;;;;;11.70;10.70;;;20.00;99.90;;;;;;5008612;28;20193;-75
2023/08/24 03:32:23;;;;;;;10.13;9.13;;;20.00;99.90;;;;;;5003324;28;20442;-73
2023/08/24 03:34:48;;;;;;;10.93;10.13;;;20.00;99.90;;;;;;5001961;28;20207;-74
2023/08/24 03:37:14;;;;;;;14.50;13.33;;;20.10;99.90;;;;;;5004670;28;20186;-74
2023/08/24 03:39:41;;;;;;;11.23;10.37;;;20.00;99.90;;;;;;4999634;28;20183;-74
2023/08/24 03:42:07;;;;;;;12.40;11.40;;;19.90;99.90;;;;;;5011504;28;20598;-74
2023/08/24 03:44:32;;;;;;;11.07;10.27;;;19.80;99.90;;;;;;5003573;28;20453;-75
2023/08/24 03:46:58;;;;;;;10.93;10.23;;;19.80;99.90;;;;;;5008510;28;20240;-74
2023/08/24 03:49:24;;;;;;;11.80;10.90;;;19.80;99.90;;;;;;5010113;28;20194;-74
2023/08/24 03:51:51;;;;;;;11.53;10.63;;;19.80;99.90;;;;;;5001673;28;20183;-74
2023/08/24 03:54:17;;;;;;;13.87;10.90;;;19.80;99.90;;;;;;4989571;28;20453;-74
2023/08/24 03:56:42;;;;;;;11.60;10.70;;;19.80;99.90;;;;;;5000409;28;20188;-73
2023/08/24 03:59:08;;;;;;;12.60;11.30;;;19.80;99.90;;;;;;5000655;28;20183;-74
2023/08/24 04:01:33;;;;;;;12.13;11.13;;;19.80;99.90;;;;;;5011998;28;20183;-74
2023/08/24 04:03:59;;;;;;;12.30;11.20;;;19.80;99.90;;;;;;5008883;28;20215;-73
2023/08/24 04:06:24;;;;;;;12.37;11.37;;;19.90;99.90;;;;;;5001581;28;20345;-74
2023/08/24 04:08:50;;;;;;;12.03;11.20;;;20.00;99.90;;;;;;4989080;28;20314;-76
2023/08/24 04:11:15;;;;;;;11.97;10.97;;;20.00;99.90;;;;;;5000977;28;20219;-75
2023/08/24 04:13:41;;;;;;;11.53;10.43;;;20.00;99.90;;;;;;4995570;28;20183;-75
2023/08/24 04:16:06;;;;;;;11.07;10.07;;;20.00;99.90;;;;;;5007601;28;20191;-68
2023/08/24 04:18:32;;;;;;;13.83;12.63;;;20.10;99.90;;;;;;5008727;28;20218;-75
2023/08/24 04:20:57;;;;;;;13.67;12.50;;;20.10;99.90;;;;;;5007503;28;20186;-75
2023/08/24 04:23:26;;;;;;;12.00;11.07;;;20.20;99.90;;;;;;5010341;28;20190;-74
2023/08/24 04:25:53;;;;;;;11.83;10.83;;;20.10;99.90;;;;;;5004455;28;20217;-74
2023/08/24 04:28:19;;;;;;;12.47;11.50;;;20.20;99.90;;;;;;5009872;28;20827;-74
2023/08/24 04:30:55;;;;;;;15.77;14.13;;;20.30;99.90;;;;;;5009023;28;20434;-74
2023/08/24 04:33:21;;;;;;;11.87;10.93;;;20.40;99.90;;;;;;5011929;28;20171;-74
2023/08/24 04:35:48;;;;;;;10.97;10.07;;;20.40;99.90;;;;;;5008711;28;20549;-74
2023/08/24 04:38:14;;;;;;;11.80;10.87;;;20.50;99.90;;;;;;5007599;28;20619;-74
2023/08/24 04:40:51;;;;;;;11.93;10.77;;;20.50;99.90;;;;;;5010631;28;20513;-74
2023/08/24 04:43:17;;;;;;;10.97;10.07;;;20.40;99.90;;;;;;4994485;28;20190;-74
2023/08/24 04:45:45;;;;;;;12.63;11.47;;;20.40;99.90;;;;;;5009694;28;20458;-74
2023/08/24 04:48:10;;;;;;;12.00;11.00;;;20.40;99.90;;;;;;5005140;28;21031;-74
2023/08/24 04:50:36;;;;;;;13.37;12.00;;;20.40;99.90;;;;;;5009248;28;20509;-74
2023/08/24 04:53:01;;;;;;;11.90;11.10;;;20.40;99.90;;;;;;5009527;28;20179;-74
2023/08/24 04:55:27;;;;;;;11.40;10.50;;;20.50;99.90;;;;;;5008245;28;20225;-74
2023/08/24 04:57:52;;;;;;;15.03;13.83;;;20.50;99.90;;;;;;5008552;28;20229;-74
2023/08/24 05:00:18;;;;;;;14.30;13.30;;;20.60;99.90;;;;;;5010224;28;20190;-74
2023/08/24 05:02:44;;;;;;;12.53;11.60;;;20.60;99.90;;;;;;5005815;28;20194;-74
2023/08/24 05:05:15;;;;;;;14.20;12.73;;;20.80;99.90;;;;;;5009677;28;20218;-74
2023/08/24 05:07:41;;;;;;;12.00;11.10;;;20.60;99.90;;;;;;5007170;28;20179;-74
2023/08/24 05:10:07;;;;;;;12.20;11.20;;;20.70;99.90;;;;;;5010158;28;20430;-74
2023/08/24 05:12:36;;;;;;;13.07;11.97;;;20.70;99.90;;;;;;5009912;28;20211;-74
2023/08/24 05:15:02;;;;;;;11.97;11.00;;;20.80;99.90;;;;;;5006323;22;20550;-66
2023/08/24 05:17:28;;;;;;;11.40;10.50;;;20.80;99.90;;;;;;4949801;28;20441;-66
2023/08/24 05:19:54;;;;;;;12.30;11.10;;;20.80;99.90;;;;;;4949668;28;20447;-66
2023/08/24 05:22:20;;;;;;;12.23;11.10;;;20.90;99.90;;;;;;4969698;28;20498;-66
2023/08/24 05:24:45;;;;;;;12.40;11.30;;;20.80;99.90;;;;;;4972637;28;20490;-67
2023/08/24 05:27:11;;;;;;;11.83;10.83;;;20.90;99.90;;;;;;4953415;28;20189;-67
2023/08/24 05:29:36;;;;;;;11.40;10.60;;;20.90;99.90;;;;;;4943601;28;20591;-67
2023/08/24 05:32:02;;;;;;;11.90;11.00;;;21.00;99.90;;;;;;4951903;28;20241;-70
2023/08/24 05:34:28;;;;;;;12.20;11.20;;;21.00;99.90;;;;;;4958884;28;20233;-70
2023/08/24 05:36:54;;;;;;;11.87;10.97;;;21.00;99.90;;;;;;4949254;28;20448;-68
2023/08/24 05:39:19;;;;;;;11.77;10.80;;;21.10;99.90;;;;;;4952124;28;20184;-68
2023/08/24 05:41:45;;;;;;;11.77;10.87;;;21.20;99.90;;;;;;4939829;29;20177;-68
2023/08/24 05:44:10;;;;;;;12.00;10.40;;;21.30;99.90;;;;;;4921608;29;20186;-68
2023/08/24 05:46:36;;;;;;;13.00;10.47;;;21.30;99.90;;;;;;4951154;29;20223;-69
2023/08/24 05:49:02;;;;;;;12.13;10.93;;;21.30;99.90;;;;;;4952029;29;20267;-68
2023/08/24 05:51:27;;;;;;;11.00;10.20;;;21.20;99.90;;;;;;4965043;28;20180;-68
2023/08/24 05:53:55;;;;;;;11.30;10.30;;;21.30;99.90;;;;;;4969171;28;20213;-68
2023/08/24 05:56:24;;;;;;;11.27;10.47;;;21.20;99.90;;;;;;4957212;28;20212;-69
2023/08/24 05:58:50;;;;;;;11.47;10.47;;;21.20;99.90;;;;;;4954295;28;20460;-69
2023/08/24 06:01:15;;;;;;;11.73;10.53;;;21.40;99.90;;;;;;4962330;28;20529;-69
2023/08/24 06:03:41;;;;;;;11.90;10.43;;;21.50;99.90;;;;;;4959411;28;20922;-69
2023/08/24 06:06:08;;;;;;;9.87;9.13;;;21.70;99.90;;;;;;4958757;28;20238;-69
2023/08/24 06:08:34;;;;;;;9.63;8.70;;;21.90;99.90;;;;;;4951511;28;20602;-69
2023/08/24 06:11:00;;;;;;;11.00;10.00;;;22.00;99.90;;;;;;4951172;28;20438;-69
2023/08/24 06:13:25;;;;;;;9.30;8.60;;;22.00;99.90;;;;;;4953781;28;20181;-69
2023/08/24 06:15:51;;;;;;;9.50;8.60;;;22.00;99.90;;;;;;4968446;28;20590;-69
2023/08/24 06:18:16;;;;;;;10.07;9.27;;;22.00;99.90;;;;;;4959169;28;20301;-69
2023/08/24 06:20:42;;;;;;;11.43;9.03;;;22.10;99.90;;;;;;4956368;29;20628;-69
2023/08/24 06:23:07;;;;;;;9.90;9.07;;;22.20;99.90;;;;;;4954279;28;20188;-69
2023/08/24 06:25:33;;;;;;;12.43;9.93;;;22.30;99.90;;;;;;4948935;28;20201;-69
2023/08/24 06:27:59;;;;;;;9.03;8.23;;;22.30;99.90;;;;;;4975545;28;20183;-69
2023/08/24 06:30:27;;;;;;;9.90;9.10;;;22.40;99.90;;;;;;4974799;28;20941;-69
2023/08/24 06:32:52;;;;;;;11.87;10.67;;;22.30;99.90;;;;;;4975526;28;20195;-69
2023/08/24 06:35:18;;;;;;;14.40;10.57;;;22.40;99.90;;;;;;4975301;28;20964;-69
2023/08/24 06:37:43;;;;;;;10.27;9.27;;;22.40;99.90;;;;;;4967381;28;20661;-69
2023/08/24 06:40:10;;;;;;;10.57;9.47;;;22.40;99.90;;;;;;4966526;28;20203;-69
2023/08/24 06:42:36;;;;;;;11.83;9.27;;;22.40;99.90;;;;;;4975446;28;20260;-69
2023/08/24 06:45:01;;;;;;;10.83;9.90;;;22.40;99.90;;;;;;4975136;28;20884;-69
2023/08/24 06:47:27;;;;;;;10.77;9.77;;;22.50;99.90;;;;;;4975402;28;20179;-69
2023/08/24 06:49:52;;;;;;;10.80;8.90;;;22.50;99.90;;;;;;4974423;28;20180;-69
2023/08/24 06:52:19;;;;;;;8.87;8.13;;;22.50;99.90;;;;;;4975089;28;20172;-69
2023/08/24 06:54:44;;;;;;;9.03;8.33;;;22.40;99.90;;;;;;4964867;28;20671;-69
2023/08/24 06:57:10;;;;;;;10.60;9.43;;;22.30;99.90;;;;;;4963628;28;20560;-69
2023/08/24 06:59:35;;;;;;;10.83;9.10;;;22.30;99.90;;;;;;4973186;28;20176;-69
2023/08/24 07:02:01;;;;;;;10.30;9.37;;;22.50;99.90;;;;;;4974997;28;20172;-69
2023/08/24 07:04:27;;;;;;;8.37;7.77;;;22.60;99.90;;;;;;4974855;28;20634;-69
2023/08/24 07:06:53;;;;;;;8.97;8.13;;;22.70;99.90;;;;;;4974721;28;20203;-69
2023/08/24 07:09:19;;;;;;;11.60;9.10;;;22.80;99.90;;;;;;4974103;28;20495;-69
2023/08/24 07:11:44;;;;;;;9.63;8.80;;;23.10;99.90;;;;;;4961636;28;20181;-69
2023/08/24 07:14:10;;;;;;;11.93;7.53;;;23.30;99.90;;;;;;4966540;28;20514;-70
2023/08/24 07:16:36;;;;;;;9.40;8.60;;;23.50;99.90;;;;;;4974466;28;20192;-69
2023/08/24 07:19:02;;;;;;;14.17;10.40;;;24.00;99.90;;;;;;4973919;28;20172;-70
2023/08/24 07:21:27;;;;;;;10.20;9.40;;;24.30;99.90;;;;;;4974420;28;20181;-69
2023/08/24 07:23:53;;;;;;;8.87;7.60;;;24.50;99.90;;;;;;4974515;28;20423;-69
2023/08/24 07:26:19;;;;;;;9.63;8.63;;;24.40;99.90;;;;;;4968917;28;20219;-69
2023/08/24 07:28:44;;;;;;;8.70;8.00;;;24.60;99.90;;;;;;4965723;28;20184;-70
2023/08/24 07:31:11;;;;;;;8.30;7.57;;;24.90;99.90;;;;;;4974282;28;20199;-70
2023/08/24 07:33:40;;;;;;;13.60;7.70;;;25.30;99.90;;;;;;4974225;28;20172;-69
2023/08/24 07:36:06;;;;;;;9.63;8.40;;;25.40;99.90;;;;;;4974205;28;20451;-69
2023/08/24 07:38:32;;;;;;;8.57;7.70;;;25.30;99.90;;;;;;4973717;28;20435;-69
2023/08/24 07:40:58;;;;;;;8.43;7.73;;;25.50;99.90;;;;;;4974217;28;20176;-70
2023/08/24 07:43:24;;;;;;;8.23;7.53;;;25.80;99.90;;;;;;4964153;28;20555;-70
2023/08/24 07:45:50;;;;;;;8.70;7.90;;;26.20;99.90;;;;;;4965882;28;20534;-70
2023/08/24 07:48:15;;;;;;;7.53;6.80;;;26.50;99.90;;;;;;4973394;28;20539;-70
2023/08/24 07:50:41;;;;;;;8.40;7.63;;;26.80;99.90;;;;;;4969287;28;20893;-70
2023/08/24 07:53:06;;;;;;;8.87;7.40;;;27.10;99.90;;;;;;4965914;28;20259;-70
2023/08/24 07:55:32;;;;;;;11.13;8.17;;;27.40;99.90;;;;;;4973963;28;20283;-71
2023/08/24 07:57:57;;;;;;;8.53;7.73;;;27.70;99.90;;;;;;4973901;28;20231;-70
2023/08/24 08:00:24;;;;;;;8.23;7.50;;;27.90;99.90;;;;;;4958233;28;20339;-70
2023/08/24 08:02:51;;;;;;;8.77;7.47;;;28.10;99.90;;;;;;4961521;28;20180;-70
2023/08/24 08:05:17;;;;;;;8.27;7.00;;;28.40;99.90;;;;;;4954300;29;20467;-70
2023/08/24 08:07:43;;;;;;;10.60;9.20;;;28.80;99.90;;;;;;4953964;28;20431;-70
2023/08/24 08:10:09;;;;;;;8.40;7.70;;;28.90;99.90;;;;;;4953821;29;20425;-70
2023/08/24 08:12:35;;;;;;;15.30;8.57;;;29.00;99.90;;;;;;4954488;29;20177;-70
2023/08/24 08:15:00;;;;;;;10.07;8.33;;;29.40;99.90;;;;;;4954234;29;20460;-70
2023/08/24 08:17:30;;;;;;;15.63;8.90;;;29.20;99.90;;;;;;4959073;28;20952;-70
2023/08/24 08:19:56;;;;;;;11.07;8.60;;;29.20;99.90;;;;;;4961453;28;20176;-70
2023/08/24 08:22:22;;;;;;;11.03;9.30;;;29.50;99.90;;;;;;4961573;28;20466;-70
2023/08/24 08:24:48;;;;;;;8.37;7.70;;;29.80;99.90;;;;;;4953980;29;20440;-70
2023/08/24 08:27:13;;;;;;;9.20;8.13;;;29.70;99.90;;;;;;4954012;29;20280;-70
2023/08/24 08:29:39;;;;;;;12.13;8.20;;;29.70;99.90;;;;;;4952815;29;20173;-70
2023/08/24 08:32:05;;;;;;;12.97;8.87;;;29.90;99.90;;;;;;4961550;28;20733;-70
2023/08/24 08:34:31;;;;;;;11.97;8.30;;;30.30;99.90;;;;;;4971576;28;20196;-70
2023/08/24 08:36:57;;;;;;;10.10;8.10;;;30.60;99.90;;;;;;4973513;28;20435;-70
2023/08/24 08:39:22;;;;;;;15.23;7.97;;;31.00;99.10;;;;;;4972596;28;20426;-70
2023/08/24 08:41:49;;;;;;;9.30;8.40;;;31.30;97.80;;;;;;4973286;28;20176;-71
2023/08/24 08:44:15;;;;;;;12.03;7.60;;;31.50;97.40;;;;;;4973063;28;20575;-70
2023/08/24 08:46:42;;;;;;;9.13;8.37;;;31.40;97.00;;;;;;4965786;28;20459;-71
2023/08/24 08:49:09;;;;;;;9.43;8.63;;;31.60;97.00;;;;;;4964288;28;20455;-70
2023/08/24 08:51:36;;;;;;;9.40;8.17;;;31.80;96.30;;;;;;4973027;28;20523;-70
2023/08/24 08:54:05;;;;;;;7.97;7.27;;;32.10;95.80;;;;;;4973140;28;20451;-70
2023/08/24 08:56:31;;;;;;;9.07;8.10;;;31.80;95.80;;;;;;4973111;28;20436;-70
2023/08/24 08:59:00;;;;;;;9.70;8.80;;;31.70;95.90;;;;;;4972373;28;20431;-71
2023/08/24 09:01:26;;;;;;;7.87;7.37;;;32.00;95.00;;;;;;4972900;28;20420;-71
2023/08/24 09:03:53;;;;;;;9.73;8.17;;;32.20;94.50;;;;;;4961299;28;20440;-70
2023/08/24 09:06:19;;;;;;;11.57;8.83;;;32.40;93.70;;;;;;4961661;28;20464;-70
2023/08/24 09:08:45;;;;;;;8.27;7.70;;;32.70;93.10;;;;;;4972241;28;20424;-71
2023/08/24 09:11:11;;;;;;;8.67;8.07;;;32.80;92.30;;;;;;4973229;28;20830;-71
2023/08/24 09:13:36;;;;;;;10.70;8.10;;;32.90;91.90;;;;;;4972898;28;20451;-71
2023/08/24 09:16:06;;;;;;;8.53;7.83;;;33.20;91.30;;;;;;4972659;28;20248;-71
2023/08/24 09:18:39;;;;;;;12.80;8.43;;;33.50;90.50;;;;;;4972205;28;20263;-71
2023/08/24 09:21:12;;;;;;;8.80;8.10;;;33.90;89.90;;;;;;4961291;28;20858;-71
2023/08/24 09:23:43;;;;;;;10.30;7.50;;;34.00;88.70;;;;;;4958050;28;20428;-71
2023/08/24 09:26:09;;;;;;;8.30;7.43;;;34.00;87.30;;;;;;4957320;29;20467;-71
2023/08/24 09:28:36;;;;;;;10.60;6.83;;;34.50;86.20;;;;;;4956485;29;20424;-71
2023/08/24 09:31:02;;;;;;;7.87;7.27;;;35.00;84.10;;;;;;4957329;29;20169;-71
2023/08/24 09:33:28;;;;;;;8.50;7.70;;;35.50;81.20;;;;;;4957418;29;20505;-72
2023/08/24 09:36:00;;;;;;;17.50;7.40;;;35.50;79.80;;;;;;4964277;28;20538;-71
2023/08/24 09:38:27;;;;;;;7.93;7.23;;;35.50;79.70;;;;;;4973537;28;20925;-71
2023/08/24 09:40:54;;;;;;;7.83;7.17;;;36.10;77.10;;;;;;4976495;28;20430;-72
2023/08/24 09:43:20;;;;;;;8.60;7.77;;;36.40;75.30;;;;;;4976322;28;20442;-72
2023/08/24 09:45:50;;;;;;;7.37;6.67;;;36.90;73.20;;;;;;4976376;28;20467;-72
2023/08/24 09:48:19;;;;;;;11.47;6.87;;;37.10;72.10;;;;;;4968624;28;20438;-72
2023/08/24 09:50:46;;;;;;;7.40;6.90;;;37.70;70.20;;;;;;4957146;28;20878;-72
2023/08/24 09:53:20;;;;;;;7.73;7.23;;;38.00;67.50;;;;;;4956209;29;20519;-72
2023/08/24 09:55:59;;;;;;;8.10;7.50;;;38.30;66.10;;;;;;4952029;28;20462;-72
2023/08/24 09:58:25;;;;;;;8.80;6.70;;;38.40;64.50;;;;;;4967521;28;20427;-72
2023/08/24 10:00:51;;;;;;;7.00;6.40;;;39.00;63.20;;;;;;4976044;28;20898;-72
2023/08/24 10:03:22;;;;;;;7.13;6.50;;;39.90;60.90;;;;;;4976102;28;20558;-72
2023/08/24 10:05:53;;;;;;;9.40;6.60;;;40.20;58.90;;;;;;4967034;28;20992;-72
2023/08/24 10:08:24;;;;;;;7.30;6.10;;;40.10;57.90;;;;;;4963475;28;20522;-72
2023/08/24 10:10:53;;;;;;;7.07;6.40;;;40.10;57.30;;;;;;4976001;28;20412;-72
2023/08/24 10:13:26;;;;;;;7.93;7.17;;;40.20;57.10;;;;;;4975808;28;20411;-72
2023/08/24 10:15:53;;;;;;;7.17;6.67;;;40.40;56.50;;;;;;4975718;28;20525;-72
2023/08/24 10:18:19;;;;;;;7.60;6.83;;;40.80;55.60;;;;;;4975068;28;20835;-72
2023/08/24 10:20:46;;;;;;;6.60;6.10;;;41.10;54.90;;;;;;4970452;28;20441;-72
2023/08/24 10:23:15;;;;;;;8.17;7.37;;;41.90;53.90;;;;;;4964281;28;20432;-72
2023/08/24 10:25:44;;;;;;;6.83;6.33;;;42.20;53.00;;;;;;4966783;28;20463;-72
2023/08/24 10:28:11;;;;;;;7.00;6.50;;;42.00;52.60;;;;;;4975120;28;20431;-72
2023/08/24 10:30:37;;;;;;;7.77;7.07;;;42.30;52.20;;;;;;4974882;28;20419;-72
2023/08/24 10:33:04;;;;;;;7.50;6.20;;;41.70;52.50;;;;;;4975145;28;20791;-72
2023/08/24 10:35:30;;;;;;;7.10;6.50;;;41.60;52.70;;;;;;4975342;28;20443;-72
2023/08/24 10:37:59;;;;;;;6.87;6.47;;;42.00;52.00;;;;;;4968121;28;20475;-72
2023/08/24 10:40:43;;;;;;;7.10;6.40;;;42.60;51.50;;;;;;4966652;28;20239;-72
2023/08/24 10:43:09;;;;;;;8.03;7.33;;;42.30;52.00;;;;;;4958078;28;20428;-72
2023/08/24 10:45:55;;;;;;;9.93;9.00;;;41.70;52.30;;;;;;4975095;28;20874;-72
2023/08/24 10:48:22;;;;;;;8.43;6.93;;;41.60;52.50;;;;;;4974845;28;20200;-72
2023/08/24 10:51:16;;;;;;;7.73;7.03;;;41.60;52.80;;;;;;4975388;28;20408;-71
2023/08/24 10:53:44;;;;;;;7.90;7.30;;;41.20;52.70;;;;;;4967027;28;20807;-71
2023/08/24 10:56:15;;;;;;;7.70;7.00;;;41.30;52.80;;;;;;4963750;28;20432;-71
2023/08/24 10:58:41;;;;;;;7.83;7.33;;;41.10;53.00;;;;;;4955385;29;20417;-72
2023/08/24 11:01:06;;;;;;;8.47;7.77;;;41.00;53.20;;;;;;4955698;29;20423;-72
2023/08/24 11:03:33;;;;;;;7.23;6.73;;;39.90;54.50;;;;;;4955701;29;20420;-71
2023/08/24 11:05:58;;;;;;;9.03;8.00;;;39.80;54.60;;;;;;4955440;29;20260;-72
2023/08/24 11:08:49;;;;;;;9.40;8.80;;;39.20;55.70;;;;;;4954820;29;20432;-70
2023/08/24 11:11:22;;;;;;;8.73;7.70;;;38.20;56.20;;;;;;4953354;28;20189;-71
2023/08/24 11:14:14;;;;;;;7.47;6.97;;;39.20;55.90;;;;;;4961362;28;20468;-71
2023/08/24 11:16:45;;;;;;;8.33;7.73;;;39.20;55.20;;;;;;5004851;23;20557;-71
2023/08/24 11:19:14;;;;;;;8.40;7.60;;;40.60;54.30;;;;;;4989052;28;20826;-71
2023/08/24 11:21:42;;;;;;;8.70;8.00;;;40.90;53.80;;;;;;4994066;28;20414;-73
2023/08/24 11:24:15;;;;;;;8.00;7.20;;;41.20;53.40;;;;;;4989050;28;20428;-73
2023/08/24 11:26:46;;;;;;;9.67;8.27;;;40.40;54.00;;;;;;4961830;28;20975;-73
2023/08/24 11:29:12;;;;;;;8.17;7.53;;;41.50;53.60;;;;;;4965742;28;20435;-73
2023/08/24 11:31:38;;;;;;;9.37;7.83;;;42.40;52.50;;;;;;4969356;28;20464;-71
2023/08/24 11:34:07;;;;;;;8.53;7.80;;;42.20;51.90;;;;;;4963005;28;20432;-71
2023/08/24 11:36:43;;;;;;;8.27;7.57;;;41.20;52.80;;;;;;4972931;28;20505;-71
2023/08/24 11:39:19;;;;;;;8.43;7.67;;;43.10;51.90;;;;;;4962123;28;20777;-71
2023/08/24 11:42:01;;;;;;;8.53;7.83;;;42.80;51.20;;;;;;4957615;28;21009;-71
2023/08/24 11:44:27;;;;;;;9.17;8.33;;;43.00;50.40;;;;;;4972128;28;20871;-71
2023/08/24 11:46:55;;;;;;;9.00;8.30;;;43.10;51.00;;;;;;4963156;28;20471;-71
2023/08/24 11:49:21;;;;;;;9.23;8.33;;;42.30;51.40;;;;;;4962296;28;20516;-71
2023/08/24 11:51:49;;;;;;;9.90;8.70;;;41.00;52.10;;;;;;4974165;28;20461;-71
2023/08/24 11:54:16;;;;;;;9.37;8.57;;;40.90;52.70;;;;;;4973951;28;20428;-72
2023/08/24 11:56:42;;;;;;;10.50;9.43;;;42.60;51.50;;;;;;4973906;28;20518;-71
2023/08/24 11:59:13;;;;;;;8.20;7.60;;;43.20;50.30;;;;;;4973271;28;20486;-71
2023/08/24 12:01:40;;;;;;;10.90;9.93;;;44.50;49.70;;;;;;4964568;28;20454;-71
2023/08/24 12:04:06;;;;;;;9.57;8.63;;;44.60;49.20;;;;;;4965803;28;20478;-71
2023/08/24 12:06:31;;;;;;;8.97;8.27;;;44.50;49.10;;;;;;4973641;28;20484;-71
2023/08/24 12:08:57;;;;;;;9.70;8.80;;;43.00;49.40;;;;;;4972997;28;20451;-71
2023/08/24 12:11:26;;;;;;;9.00;8.17;;;41.10;51.40;;;;;;4973689;28;20204;-72
2023/08/24 12:13:53;;;;;;;8.83;8.10;;;40.60;52.20;;;;;;4973712;28;20239;-72
2023/08/24 12:16:20;;;;;;;14.17;8.73;;;39.70;53.00;;;;;;4972042;28;20466;-72
2023/08/24 12:18:55;;;;;;;13.00;8.60;;;39.70;53.80;;;;;;4960798;28;20447;-72
2023/08/24 12:21:22;;;;;;;8.97;8.27;;;39.80;53.90;;;;;;4970613;28;20472;-72
2023/08/24 12:24:00;;;;;;;10.23;9.23;;;39.70;53.60;;;;;;4973735;28;20765;-71
2023/08/24 12:26:29;;;;;;;10.03;8.67;;;40.10;53.40;;;;;;4973190;28;20473;-71
2023/08/24 12:29:00;;;;;;;10.47;9.50;;;40.10;53.10;;;;;;4972737;28;20927;-71
2023/08/24 12:31:28;;;;;;;10.00;7.17;;;40.60;53.00;;;;;;4965666;28;20776;-71
2023/08/24 12:34:03;;;;;;;9.17;8.47;;;42.10;52.30;;;;;;4965297;28;20470;-71
2023/08/24 12:36:29;;;;;;;9.20;8.40;;;43.30;50.20;;;;;;4973276;28;20489;-72
2023/08/24 12:38:54;;;;;;;8.00;7.40;;;42.90;50.30;;;;;;4972578;28;20426;-71